Coevorden, Netherlands
Current Conditions -  °F | °C
As of 7:55 PM on Thursday 23 Oct 2014 (Local Time) from EHGG Reporting Station
Overcast Overcast  
Wind Chill: 54°   Ceiling: 3300
Heat Index: 54°   Visibility: 6mi
Dew Point: 52°   Wind: 7mph
Humidity: 94%   Direction: 180°S
Pressure: 30.09"   Gusts: NA
Location:  52.66°N, 6.74°E
Report Text: EHGG 231755Z AUTO 18006KT 9999 OVC033 12/11 Q1019 NOSIG
Loading
Personal Weather Stations






























Interactive Weather Map
Tropical Storm Tracking
New forecast layout! Learn more

10-Day Weather Forecast

Advertisements
Track Severe Weather on mobile